sensor_id;sensor_type;location;lat;lon;timestamp;pressure;altitude;pressure_sealevel;temperature;humidity
17521;BME280;8878;-33.370;-70.552;2023-03-22T00:01:32;92048.25;;;28.02;35.11
17521;BME280;8878;-33.370;-70.552;2023-03-22T00:04:02;92047.78;;;27.93;35.13
17521;BME280;8878;-33.370;-70.552;2023-03-22T00:06:32;92051.56;;;27.82;35.56
17521;BME280;8878;-33.370;-70.552;2023-03-22T00:09:01;92055.84;;;27.86;35.22
17521;BME280;8878;-33.370;-70.552;2023-03-22T00:11:31;92059.66;;;27.78;35.22
17521;BME280;8878;-33.370;-70.552;2023-03-22T00:14:00;92060.31;;;27.64;35.50
17521;BME280;8878;-33.370;-70.552;2023-03-22T00:16:32;92066.34;;;27.51;35.68
17521;BME280;8878;-33.370;-70.552;2023-03-22T00:19:19;92070.13;;;27.43;35.65
17521;BME280;8878;-33.370;-70.552;2023-03-22T00:21:48;92074.25;;;27.29;36.57
17521;BME280;8878;-33.370;-70.552;2023-03-22T00:24:18;92076.56;;;27.27;36.47
17521;BME280;8878;-33.370;-70.552;2023-03-22T00:26:48;92079.50;;;27.15;35.27
17521;BME280;8878;-33.370;-70.552;2023-03-22T00:29:17;92085.97;;;27.07;35.18
17521;BME280;8878;-33.370;-70.552;2023-03-22T00:31:50;92074.50;;;27.17;35.56
17521;BME280;8878;-33.370;-70.552;2023-03-22T00:34:20;92085.34;;;27.17;35.87
17521;BME280;8878;-33.370;-70.552;2023-03-22T00:36:49;92086.91;;;27.18;35.74
17521;BME280;8878;-33.370;-70.552;2023-03-22T00:39:19;92097.69;;;27.15;35.33
17521;BME280;8878;-33.370;-70.552;2023-03-22T00:41:48;92086.47;;;27.16;35.96
17521;BME280;8878;-33.370;-70.552;2023-03-22T00:44:20;92089.94;;;27.13;36.88
17521;BME280;8878;-33.370;-70.552;2023-03-22T00:46:53;92096.06;;;27.07;36.50
17521;BME280;8878;-33.370;-70.552;2023-03-22T00:49:22;92099.03;;;26.98;36.59
17521;BME280;8878;-33.370;-70.552;2023-03-22T00:51:52;92098.19;;;26.94;37.20
17521;BME280;8878;-33.370;-70.552;2023-03-22T00:54:24;92098.94;;;26.91;36.89
17521;BME280;8878;-33.370;-70.552;2023-03-22T00:56:53;92101.66;;;26.91;37.61
17521;BME280;8878;-33.370;-70.552;2023-03-22T00:59:22;92106.06;;;26.76;37.71
17521;BME280;8878;-33.370;-70.552;2023-03-22T01:01:54;92110.09;;;26.60;38.07
17521;BME280;8878;-33.370;-70.552;2023-03-22T01:04:24;92104.56;;;26.52;38.13
17521;BME280;8878;-33.370;-70.552;2023-03-22T01:06:55;92108.31;;;26.44;38.20
17521;BME280;8878;-33.370;-70.552;2023-03-22T01:09:27;92112.84;;;26.37;38.33
17521;BME280;8878;-33.370;-70.552;2023-03-22T01:11:58;92116.22;;;26.30;38.71
17521;BME280;8878;-33.370;-70.552;2023-03-22T01:14:28;92119.81;;;26.15;38.92
17521;BME280;8878;-33.370;-70.552;2023-03-22T01:17:00;92117.97;;;26.19;38.71
17521;BME280;8878;-33.370;-70.552;2023-03-22T01:19:30;92110.34;;;26.25;38.82
17521;BME280;8878;-33.370;-70.552;2023-03-22T01:22:00;92116.47;;;26.22;38.98
17521;BME280;8878;-33.370;-70.552;2023-03-22T01:24:29;92124.28;;;26.27;38.58
17521;BME280;8878;-33.370;-70.552;2023-03-22T01:26:58;92123.63;;;26.33;39.17
17521;BME280;8878;-33.370;-70.552;2023-03-22T01:29:28;92123.50;;;26.26;39.25
17521;BME280;8878;-33.370;-70.552;2023-03-22T01:32:00;92129.50;;;26.16;39.69
17521;BME280;8878;-33.370;-70.552;2023-03-22T01:34:29;92120.00;;;26.03;40.10
17521;BME280;8878;-33.370;-70.552;2023-03-22T01:36:59;92119.19;;;25.99;40.16
17521;BME280;8878;-33.370;-70.552;2023-03-22T01:39:28;92122.13;;;25.90;39.99
17521;BME280;8878;-33.370;-70.552;2023-03-22T01:41:57;92123.97;;;25.86;40.46
17521;BME280;8878;-33.370;-70.552;2023-03-22T01:44:29;92113.72;;;25.95;40.22
17521;BME280;8878;-33.370;-70.552;2023-03-22T01:47:01;92119.66;;;25.82;40.48
17521;BME280;8878;-33.370;-70.552;2023-03-22T01:49:32;92121.66;;;25.85;40.59
17521;BME280;8878;-33.370;-70.552;2023-03-22T01:52:06;92103.06;;;25.60;41.00
17521;BME280;8878;-33.370;-70.552;2023-03-22T01:54:39;92110.41;;;25.83;40.24
17521;BME280;8878;-33.370;-70.552;2023-03-22T01:57:10;92115.63;;;25.72;39.64
17521;BME280;8878;-33.370;-70.552;2023-03-22T01:59:40;92115.59;;;25.30;39.96
17521;BME280;8878;-33.370;-70.552;2023-03-22T02:02:12;92114.75;;;25.26;39.11
17521;BME280;8878;-33.370;-70.552;2023-03-22T02:04:45;92111.91;;;25.38;38.89
17521;BME280;8878;-33.370;-70.552;2023-03-22T02:07:18;92112.53;;;25.31;38.79
17521;BME280;8878;-33.370;-70.552;2023-03-22T02:09:53;92105.91;;;25.48;38.50
17521;BME280;8878;-33.370;-70.552;2023-03-22T02:12:29;92106.97;;;25.21;38.94
17521;BME280;8878;-33.370;-70.552;2023-03-22T02:15:06;92102.53;;;25.32;38.68
17521;BME280;8878;-33.370;-70.552;2023-03-22T02:17:48;92107.28;;;25.39;38.42
17521;BME280;8878;-33.370;-70.552;2023-03-22T02:20:45;92102.81;;;25.27;38.69
17521;BME280;8878;-33.370;-70.552;2023-03-22T02:27:07;92101.81;;;25.35;38.32
17521;BME280;8878;-33.370;-70.552;2023-03-22T02:29:45;92103.66;;;25.50;38.19
17521;BME280;8878;-33.370;-70.552;2023-03-22T02:32:55;92114.88;;;25.71;37.39
17521;BME280;8878;-33.370;-70.552;2023-03-22T02:35:36;92106.09;;;25.78;38.40
17521;BME280;8878;-33.370;-70.552;2023-03-22T02:38:19;92101.28;;;25.91;38.27
17521;BME280;8878;-33.370;-70.552;2023-03-22T02:40:57;92105.94;;;25.94;38.04
17521;BME280;8878;-33.370;-70.552;2023-03-22T02:43:35;92107.28;;;25.81;38.01
17521;BME280;8878;-33.370;-70.552;2023-03-22T02:46:08;92109.75;;;25.89;38.00
17521;BME280;8878;-33.370;-70.552;2023-03-22T02:48:43;92106.22;;;25.62;38.62
17521;BME280;8878;-33.370;-70.552;2023-03-22T02:51:22;92101.28;;;25.68;38.59
17521;BME280;8878;-33.370;-70.552;2023-03-22T02:53:55;92100.56;;;25.29;38.83
17521;BME280;8878;-33.370;-70.552;2023-03-22T02:56:31;92100.69;;;25.17;39.05
17521;BME280;8878;-33.370;-70.552;2023-03-22T02:59:06;92104.59;;;25.19;39.04
17521;BME280;8878;-33.370;-70.552;2023-03-22T03:01:39;92108.00;;;25.16;38.83
17521;BME280;8878;-33.370;-70.552;2023-03-22T03:04:13;92099.50;;;25.14;39.65
17521;BME280;8878;-33.370;-70.552;2023-03-22T03:06:47;92103.25;;;25.10;39.58
17521;BME280;8878;-33.370;-70.552;2023-03-22T03:09:18;92110.22;;;24.91;39.19
17521;BME280;8878;-33.370;-70.552;2023-03-22T03:11:51;92107.19;;;24.93;39.12
17521;BME280;8878;-33.370;-70.552;2023-03-22T03:14:23;92104.94;;;24.79;39.48
17521;BME280;8878;-33.370;-70.552;2023-03-22T03:17:07;92108.78;;;24.78;39.49
17521;BME280;8878;-33.370;-70.552;2023-03-22T03:19:47;92102.25;;;24.79;40.29
17521;BME280;8878;-33.370;-70.552;2023-03-22T03:22:33;92097.44;;;24.73;40.17
17521;BME280;8878;-33.370;-70.552;2023-03-22T03:25:07;92101.22;;;24.68;40.10
17521;BME280;8878;-33.370;-70.552;2023-03-22T03:27:44;92099.81;;;24.39;40.61
17521;BME280;8878;-33.370;-70.552;2023-03-22T03:30:19;92095.78;;;23.98;41.24
17521;BME280;8878;-33.370;-70.552;2023-03-22T03:32:54;92097.69;;;24.13;40.94
17521;BME280;8878;-33.370;-70.552;2023-03-22T03:35:27;92088.53;;;24.18;40.86
17521;BME280;8878;-33.370;-70.552;2023-03-22T03:38:02;92085.69;;;24.27;40.68
17521;BME280;8878;-33.370;-70.552;2023-03-22T03:40:36;92085.06;;;24.33;40.48
17521;BME280;8878;-33.370;-70.552;2023-03-22T03:43:10;92083.75;;;24.43;40.83
17521;BME280;8878;-33.370;-70.552;2023-03-22T03:45:40;92079.16;;;24.28;41.14
17521;BME280;8878;-33.370;-70.552;2023-03-22T03:48:12;92080.56;;;24.22;41.15
17521;BME280;8878;-33.370;-70.552;2023-03-22T03:50:43;92095.78;;;24.30;41.40
17521;BME280;8878;-33.370;-70.552;2023-03-22T03:53:12;92092.31;;;24.29;40.94
17521;BME280;8878;-33.370;-70.552;2023-03-22T03:55:41;92094.72;;;24.18;40.69
17521;BME280;8878;-33.370;-70.552;2023-03-22T03:58:12;92094.09;;;24.09;41.31
17521;BME280;8878;-33.370;-70.552;2023-03-22T04:00:42;92106.97;;;24.32;41.01
17521;BME280;8878;-33.370;-70.552;2023-03-22T04:03:12;92103.84;;;24.14;41.02
17521;BME280;8878;-33.370;-70.552;2023-03-22T04:05:42;92100.69;;;24.43;42.16
17521;BME280;8878;-33.370;-70.552;2023-03-22T04:08:12;92098.00;;;24.43;41.63
17521;BME280;8878;-33.370;-70.552;2023-03-22T04:10:41;92094.28;;;24.32;41.80
17521;BME280;8878;-33.370;-70.552;2023-03-22T04:13:13;92083.34;;;24.25;41.69
17521;BME280;8878;-33.370;-70.552;2023-03-22T04:15:42;92079.50;;;24.26;41.97
17521;BME280;8878;-33.370;-70.552;2023-03-22T04:18:12;92084.63;;;24.31;41.83
17521;BME280;8878;-33.370;-70.552;2023-03-22T04:20:41;92079.94;;;24.28;42.62
17521;BME280;8878;-33.370;-70.552;2023-03-22T04:23:15;92074.91;;;24.11;44.22
17521;BME280;8878;-33.370;-70.552;2023-03-22T04:25:44;92073.78;;;23.80;44.58
17521;BME280;8878;-33.370;-70.552;2023-03-22T04:28:17;92080.13;;;23.88;43.94
17521;BME280;8878;-33.370;-70.552;2023-03-22T04:30:47;92081.97;;;23.84;43.80
17521;BME280;8878;-33.370;-70.552;2023-03-22T04:33:18;92085.19;;;23.74;43.46
17521;BME280;8878;-33.370;-70.552;2023-03-22T04:35:48;92081.91;;;23.65;43.28
17521;BME280;8878;-33.370;-70.552;2023-03-22T04:38:22;92080.22;;;23.76;42.99
17521;BME280;8878;-33.370;-70.552;2023-03-22T04:40:52;92077.44;;;23.88;43.86
17521;BME280;8878;-33.370;-70.552;2023-03-22T04:43:23;92075.28;;;23.78;44.46
17521;BME280;8878;-33.370;-70.552;2023-03-22T04:45:52;92073.44;;;23.82;44.62
17521;BME280;8878;-33.370;-70.552;2023-03-22T04:48:24;92076.13;;;23.66;44.24
17521;BME280;8878;-33.370;-70.552;2023-03-22T04:50:53;92077.53;;;23.76;44.44
17521;BME280;8878;-33.370;-70.552;2023-03-22T04:53:23;92085.34;;;23.81;45.40
17521;BME280;8878;-33.370;-70.552;2023-03-22T04:55:54;92088.22;;;23.88;44.35
17521;BME280;8878;-33.370;-70.552;2023-03-22T04:58:27;92096.13;;;23.81;44.97
17521;BME280;8878;-33.370;-70.552;2023-03-22T05:00:56;92095.69;;;23.95;44.76
17521;BME280;8878;-33.370;-70.552;2023-03-22T05:03:26;92099.31;;;24.02;44.29
17521;BME280;8878;-33.370;-70.552;2023-03-22T05:05:56;92098.72;;;24.09;44.14
17521;BME280;8878;-33.370;-70.552;2023-03-22T05:08:28;92107.06;;;23.88;43.40
17521;BME280;8878;-33.370;-70.552;2023-03-22T05:11:02;92111.69;;;23.88;43.26
17521;BME280;8878;-33.370;-70.552;2023-03-22T05:13:34;92113.50;;;23.99;44.81
17521;BME280;8878;-33.370;-70.552;2023-03-22T05:16:05;92105.00;;;23.97;45.28
17521;BME280;8878;-33.370;-70.552;2023-03-22T05:18:35;92112.28;;;23.81;45.81
17521;BME280;8878;-33.370;-70.552;2023-03-22T05:21:12;92115.69;;;23.78;46.10
17521;BME280;8878;-33.370;-70.552;2023-03-22T05:23:43;92118.75;;;23.92;45.63
17521;BME280;8878;-33.370;-70.552;2023-03-22T05:26:13;92107.44;;;23.71;45.74
17521;BME280;8878;-33.370;-70.552;2023-03-22T05:28:44;92110.41;;;23.66;46.17
17521;BME280;8878;-33.370;-70.552;2023-03-22T05:31:13;92113.78;;;23.63;45.83
17521;BME280;8878;-33.370;-70.552;2023-03-22T05:33:43;92117.25;;;23.63;45.77
17521;BME280;8878;-33.370;-70.552;2023-03-22T05:36:13;92116.81;;;23.61;45.66
17521;BME280;8878;-33.370;-70.552;2023-03-22T05:38:42;92107.16;;;23.60;45.50
17521;BME280;8878;-33.370;-70.552;2023-03-22T05:41:12;92105.97;;;23.46;45.65
17521;BME280;8878;-33.370;-70.552;2023-03-22T05:43:43;92107.34;;;23.52;45.29
17521;BME280;8878;-33.370;-70.552;2023-03-22T05:46:13;92105.59;;;23.31;45.66
17521;BME280;8878;-33.370;-70.552;2023-03-22T05:48:42;92109.56;;;23.06;45.65
17521;BME280;8878;-33.370;-70.552;2023-03-22T05:51:12;92104.38;;;23.13;45.48
17521;BME280;8878;-33.370;-70.552;2023-03-22T05:53:43;92106.00;;;23.18;45.25
17521;BME280;8878;-33.370;-70.552;2023-03-22T05:56:13;92099.97;;;22.93;45.99
17521;BME280;8878;-33.370;-70.552;2023-03-22T05:58:44;92094.88;;;23.03;45.02
17521;BME280;8878;-33.370;-70.552;2023-03-22T06:01:13;92102.69;;;22.81;45.45
17521;BME280;8878;-33.370;-70.552;2023-03-22T06:03:43;92098.97;;;23.13;44.94
17521;BME280;8878;-33.370;-70.552;2023-03-22T06:06:14;92094.28;;;23.10;44.70
17521;BME280;8878;-33.370;-70.552;2023-03-22T06:08:43;92100.75;;;22.93;44.57
17521;BME280;8878;-33.370;-70.552;2023-03-22T06:11:12;92093.81;;;22.92;44.69
17521;BME280;8878;-33.370;-70.552;2023-03-22T06:13:43;92086.53;;;23.36;43.56
17521;BME280;8878;-33.370;-70.552;2023-03-22T06:16:13;92084.59;;;23.65;43.75
17521;BME280;8878;-33.370;-70.552;2023-03-22T06:18:43;92084.31;;;23.70;43.33
17521;BME280;8878;-33.370;-70.552;2023-03-22T06:21:12;92076.34;;;23.58;43.22
17521;BME280;8878;-33.370;-70.552;2023-03-22T06:23:41;92087.06;;;23.42;43.98
17521;BME280;8878;-33.370;-70.552;2023-03-22T06:26:11;92076.25;;;23.70;43.29
17521;BME280;8878;-33.370;-70.552;2023-03-22T06:28:40;92077.38;;;23.69;44.30
17521;BME280;8878;-33.370;-70.552;2023-03-22T06:31:11;92071.81;;;23.62;44.41
17521;BME280;8878;-33.370;-70.552;2023-03-22T06:33:41;92066.84;;;23.64;44.39
17521;BME280;8878;-33.370;-70.552;2023-03-22T06:36:11;92068.94;;;23.55;44.12
17521;BME280;8878;-33.370;-70.552;2023-03-22T06:38:40;92067.38;;;23.54;44.15
17521;BME280;8878;-33.370;-70.552;2023-03-22T06:41:09;92066.50;;;23.50;43.83
17521;BME280;8878;-33.370;-70.552;2023-03-22T06:43:39;92066.31;;;23.42;43.71
17521;BME280;8878;-33.370;-70.552;2023-03-22T06:46:10;92060.69;;;23.48;43.72
17521;BME280;8878;-33.370;-70.552;2023-03-22T06:48:39;92063.25;;;23.28;44.76
17521;BME280;8878;-33.370;-70.552;2023-03-22T06:51:09;92059.56;;;23.05;45.03
17521;BME280;8878;-33.370;-70.552;2023-03-22T06:53:38;92057.13;;;23.00;45.94
17521;BME280;8878;-33.370;-70.552;2023-03-22T06:56:08;92049.00;;;22.84;46.65
17521;BME280;8878;-33.370;-70.552;2023-03-22T06:58:39;92050.97;;;22.99;45.13
17521;BME280;8878;-33.370;-70.552;2023-03-22T07:01:10;92058.28;;;23.15;44.76
17521;BME280;8878;-33.370;-70.552;2023-03-22T07:03:39;92055.63;;;23.02;44.61
17521;BME280;8878;-33.370;-70.552;2023-03-22T07:06:10;92050.56;;;22.85;44.05
17521;BME280;8878;-33.370;-70.552;2023-03-22T07:08:39;92051.75;;;23.00;45.00
17521;BME280;8878;-33.370;-70.552;2023-03-22T07:11:08;92043.41;;;23.05;44.40
17521;BME280;8878;-33.370;-70.552;2023-03-22T07:13:38;92048.03;;;23.20;44.58
17521;BME280;8878;-33.370;-70.552;2023-03-22T07:16:08;92041.38;;;23.30;44.40
17521;BME280;8878;-33.370;-70.552;2023-03-22T07:18:39;92045.06;;;23.10;44.63
17521;BME280;8878;-33.370;-70.552;2023-03-22T07:21:08;92051.84;;;23.19;44.37
17521;BME280;8878;-33.370;-70.552;2023-03-22T07:23:38;92046.09;;;23.05;44.34
17521;BME280;8878;-33.370;-70.552;2023-03-22T07:26:07;92042.72;;;23.08;44.46
17521;BME280;8878;-33.370;-70.552;2023-03-22T07:28:36;92045.84;;;22.94;45.10
17521;BME280;8878;-33.370;-70.552;2023-03-22T07:31:08;92038.31;;;22.88;45.56
17521;BME280;8878;-33.370;-70.552;2023-03-22T07:33:39;92040.22;;;22.59;46.10
17521;BME280;8878;-33.370;-70.552;2023-03-22T07:36:09;92034.78;;;22.84;44.96
17521;BME280;8878;-33.370;-70.552;2023-03-22T07:38:39;92035.44;;;22.81;45.45
17521;BME280;8878;-33.370;-70.552;2023-03-22T07:41:08;92040.00;;;22.64;45.47
17521;BME280;8878;-33.370;-70.552;2023-03-22T07:43:37;92032.13;;;22.72;45.17
17521;BME280;8878;-33.370;-70.552;2023-03-22T07:46:07;92027.63;;;22.76;45.13
17521;BME280;8878;-33.370;-70.552;2023-03-22T07:48:36;92027.75;;;22.95;44.77
17521;BME280;8878;-33.370;-70.552;2023-03-22T07:51:08;92027.50;;;22.84;44.86
17521;BME280;8878;-33.370;-70.552;2023-03-22T07:53:37;92031.03;;;22.88;44.88
17521;BME280;8878;-33.370;-70.552;2023-03-22T07:56:07;92023.06;;;22.36;45.85
17521;BME280;8878;-33.370;-70.552;2023-03-22T07:58:37;92022.06;;;22.29;46.07
17521;BME280;8878;-33.370;-70.552;2023-03-22T08:01:07;92025.13;;;22.15;45.90
17521;BME280;8878;-33.370;-70.552;2023-03-22T08:03:37;92019.06;;;22.18;46.13
17521;BME280;8878;-33.370;-70.552;2023-03-22T08:06:08;92025.09;;;22.27;45.81
17521;BME280;8878;-33.370;-70.552;2023-03-22T08:08:38;92009.91;;;22.47;45.50
17521;BME280;8878;-33.370;-70.552;2023-03-22T08:11:07;92008.97;;;22.27;45.32
17521;BME280;8878;-33.370;-70.552;2023-03-22T08:13:38;92007.81;;;22.40;45.34
17521;BME280;8878;-33.370;-70.552;2023-03-22T08:16:07;92010.47;;;22.12;45.58
17521;BME280;8878;-33.370;-70.552;2023-03-22T08:18:37;92005.16;;;22.28;45.14
17521;BME280;8878;-33.370;-70.552;2023-03-22T08:21:10;91996.75;;;22.30;45.18
17521;BME280;8878;-33.370;-70.552;2023-03-22T08:23:39;91996.13;;;22.48;44.73
17521;BME280;8878;-33.370;-70.552;2023-03-22T08:26:10;91997.75;;;22.37;44.84
17521;BME280;8878;-33.370;-70.552;2023-03-22T08:28:39;91999.41;;;22.42;44.25
17521;BME280;8878;-33.370;-70.552;2023-03-22T08:31:11;92000.38;;;22.49;43.87
17521;BME280;8878;-33.370;-70.552;2023-03-22T08:33:41;91991.63;;;22.52;44.16
17521;BME280;8878;-33.370;-70.552;2023-03-22T08:36:15;91992.78;;;22.51;43.97
17521;BME280;8878;-33.370;-70.552;2023-03-22T08:38:44;91991.81;;;22.59;44.03
17521;BME280;8878;-33.370;-70.552;2023-03-22T08:41:14;91987.13;;;22.56;44.28
17521;BME280;8878;-33.370;-70.552;2023-03-22T08:43:44;91983.41;;;22.33;44.29
17521;BME280;8878;-33.370;-70.552;2023-03-22T08:46:13;91978.75;;;22.46;43.74
17521;BME280;8878;-33.370;-70.552;2023-03-22T08:48:42;91979.16;;;22.32;44.12
17521;BME280;8878;-33.370;-70.552;2023-03-22T08:51:19;91984.25;;;22.49;43.87
17521;BME280;8878;-33.370;-70.552;2023-03-22T08:53:48;91984.53;;;22.60;43.59
17521;BME280;8878;-33.370;-70.552;2023-03-22T08:56:18;91978.88;;;22.49;44.19
17521;BME280;8878;-33.370;-70.552;2023-03-22T08:58:49;91982.81;;;22.40;45.79
17521;BME280;8878;-33.370;-70.552;2023-03-22T09:01:18;91989.41;;;22.14;45.59
17521;BME280;8878;-33.370;-70.552;2023-03-22T09:03:48;91984.81;;;22.15;45.49
17521;BME280;8878;-33.370;-70.552;2023-03-22T09:06:19;91990.41;;;22.22;45.06
17521;BME280;8878;-33.370;-70.552;2023-03-22T09:08:48;91996.63;;;21.98;44.96
17521;BME280;8878;-33.370;-70.552;2023-03-22T09:11:19;91999.06;;;22.03;44.84
17521;BME280;8878;-33.370;-70.552;2023-03-22T09:13:48;92002.34;;;22.24;44.56
17521;BME280;8878;-33.370;-70.552;2023-03-22T09:16:18;91998.22;;;22.27;44.16
17521;BME280;8878;-33.370;-70.552;2023-03-22T09:18:47;92000.00;;;22.35;43.94
17521;BME280;8878;-33.370;-70.552;2023-03-22T09:21:18;91994.09;;;22.57;43.77
17521;BME280;8878;-33.370;-70.552;2023-03-22T09:23:48;91999.19;;;22.62;43.08
17521;BME280;8878;-33.370;-70.552;2023-03-22T09:26:17;91998.56;;;22.81;43.41
17521;BME280;8878;-33.370;-70.552;2023-03-22T09:28:47;91997.22;;;23.03;42.74
17521;BME280;8878;-33.370;-70.552;2023-03-22T09:31:16;91995.81;;;22.78;43.90
17521;BME280;8878;-33.370;-70.552;2023-03-22T09:33:46;91987.00;;;22.93;44.78
17521;BME280;8878;-33.370;-70.552;2023-03-22T09:36:15;91998.38;;;22.46;46.02
17521;BME280;8878;-33.370;-70.552;2023-03-22T09:38:47;91993.25;;;22.41;45.94
17521;BME280;8878;-33.370;-70.552;2023-03-22T09:41:20;91996.78;;;22.57;45.51
17521;BME280;8878;-33.370;-70.552;2023-03-22T09:43:52;91991.19;;;22.50;45.57
17521;BME280;8878;-33.370;-70.552;2023-03-22T09:46:28;91991.78;;;22.44;46.10
17521;BME280;8878;-33.370;-70.552;2023-03-22T09:48:59;91990.59;;;22.29;46.52
17521;BME280;8878;-33.370;-70.552;2023-03-22T09:51:37;91997.44;;;22.26;46.02
17521;BME280;8878;-33.370;-70.552;2023-03-22T09:54:14;91993.69;;;22.43;45.96
17521;BME280;8878;-33.370;-70.552;2023-03-22T09:56:49;91997.59;;;22.46;45.80
17521;BME280;8878;-33.370;-70.552;2023-03-22T09:59:25;91997.44;;;22.26;46.37
17521;BME280;8878;-33.370;-70.552;2023-03-22T10:01:59;91989.97;;;21.96;46.96
17521;BME280;8878;-33.370;-70.552;2023-03-22T10:04:44;91991.00;;;21.91;47.07
17521;BME280;8878;-33.370;-70.552;2023-03-22T10:07:23;91987.66;;;21.82;46.87
17521;BME280;8878;-33.370;-70.552;2023-03-22T10:10:06;92003.66;;;21.91;46.08
17521;BME280;8878;-33.370;-70.552;2023-03-22T10:12:40;91992.94;;;21.78;46.16
17521;BME280;8878;-33.370;-70.552;2023-03-22T10:15:14;92001.75;;;22.03;45.24
17521;BME280;8878;-33.370;-70.552;2023-03-22T10:17:48;92006.13;;;22.08;45.15
17521;BME280;8878;-33.370;-70.552;2023-03-22T10:20:28;92007.69;;;21.97;45.47
17521;BME280;8878;-33.370;-70.552;2023-03-22T10:23:01;92013.69;;;22.30;46.29
17521;BME280;8878;-33.370;-70.552;2023-03-22T10:25:36;92012.88;;;22.30;45.79
17521;BME280;8878;-33.370;-70.552;2023-03-22T10:28:15;92015.28;;;21.95;47.08
17521;BME280;8878;-33.370;-70.552;2023-03-22T10:30:46;92014.91;;;22.20;46.25
17521;BME280;8878;-33.370;-70.552;2023-03-22T10:36:12;92020.91;;;22.42;45.37
17521;BME280;8878;-33.370;-70.552;2023-03-22T10:38:45;92018.09;;;22.38;45.62
17521;BME280;8878;-33.370;-70.552;2023-03-22T10:41:19;92016.91;;;22.36;45.71
17521;BME280;8878;-33.370;-70.552;2023-03-22T10:43:52;92021.56;;;22.39;45.85
17521;BME280;8878;-33.370;-70.552;2023-03-22T10:46:23;92024.38;;;22.42;45.60
17521;BME280;8878;-33.370;-70.552;2023-03-22T10:48:56;92030.91;;;22.29;46.12
17521;BME280;8878;-33.370;-70.552;2023-03-22T10:51:29;92033.31;;;21.94;46.87
17521;BME280;8878;-33.370;-70.552;2023-03-22T10:54:00;92033.09;;;21.87;47.23
17521;BME280;8878;-33.370;-70.552;2023-03-22T10:56:33;92036.56;;;21.87;47.28
17521;BME280;8878;-33.370;-70.552;2023-03-22T10:59:02;92037.56;;;21.95;46.98
17521;BME280;8878;-33.370;-70.552;2023-03-22T11:01:33;92034.56;;;22.09;46.43
17521;BME280;8878;-33.370;-70.552;2023-03-22T11:04:10;92046.75;;;22.06;46.67
17521;BME280;8878;-33.370;-70.552;2023-03-22T11:06:47;92042.94;;;22.07;46.99
17521;BME280;8878;-33.370;-70.552;2023-03-22T11:09:18;92034.56;;;22.09;46.95
17521;BME280;8878;-33.370;-70.552;2023-03-22T11:11:51;92042.38;;;22.14;46.97
17521;BME280;8878;-33.370;-70.552;2023-03-22T11:14:24;92043.44;;;22.25;46.64
17521;BME280;8878;-33.370;-70.552;2023-03-22T11:16:57;92053.78;;;22.11;47.41
17521;BME280;8878;-33.370;-70.552;2023-03-22T11:19:31;92054.81;;;22.06;47.41
17521;BME280;8878;-33.370;-70.552;2023-03-22T11:22:03;92051.53;;;22.13;47.48
17521;BME280;8878;-33.370;-70.552;2023-03-22T11:24:34;92059.72;;;22.16;47.31
17521;BME280;8878;-33.370;-70.552;2023-03-22T11:27:08;92056.88;;;22.25;47.17
17521;BME280;8878;-33.370;-70.552;2023-03-22T11:29:47;92054.41;;;22.32;46.29
17521;BME280;8878;-33.370;-70.552;2023-03-22T11:32:24;92061.75;;;22.47;46.22
17521;BME280;8878;-33.370;-70.552;2023-03-22T11:35:01;92058.81;;;22.52;46.37
17521;BME280;8878;-33.370;-70.552;2023-03-22T11:37:31;92072.38;;;22.56;46.78
17521;BME280;8878;-33.370;-70.552;2023-03-22T11:40:01;92072.94;;;22.61;45.49
17521;BME280;8878;-33.370;-70.552;2023-03-22T11:42:40;92076.34;;;22.86;45.09
17521;BME280;8878;-33.370;-70.552;2023-03-22T11:45:14;92084.41;;;23.14;44.84
17521;BME280;8878;-33.370;-70.552;2023-03-22T11:47:44;92080.97;;;23.29;44.39
17521;BME280;8878;-33.370;-70.552;2023-03-22T11:50:26;92078.88;;;23.38;44.24
17521;BME280;8878;-33.370;-70.552;2023-03-22T11:52:56;92074.94;;;23.48;44.72
17521;BME280;8878;-33.370;-70.552;2023-03-22T11:55:26;92078.41;;;23.64;43.70
17521;BME280;8878;-33.370;-70.552;2023-03-22T11:57:59;92088.34;;;23.32;41.61
17521;BME280;8878;-33.370;-70.552;2023-03-22T12:00:31;92084.94;;;23.63;41.97
17521;BME280;8878;-33.370;-70.552;2023-03-22T12:03:05;92084.66;;;23.84;42.34
17521;BME280;8878;-33.370;-70.552;2023-03-22T12:05:38;92083.94;;;24.03;41.85
17521;BME280;8878;-33.370;-70.552;2023-03-22T12:08:16;92083.69;;;24.08;41.66
17521;BME280;8878;-33.370;-70.552;2023-03-22T12:10:51;92091.22;;;24.18;42.71
17521;BME280;8878;-33.370;-70.552;2023-03-22T12:13:27;92086.19;;;24.16;42.60
17521;BME280;8878;-33.370;-70.552;2023-03-22T12:16:05;92087.69;;;24.14;42.53
17521;BME280;8878;-33.370;-70.552;2023-03-22T12:18:43;92082.81;;;24.19;42.46
17521;BME280;8878;-33.370;-70.552;2023-03-22T12:21:15;92092.72;;;24.15;42.21
17521;BME280;8878;-33.370;-70.552;2023-03-22T12:23:45;92087.09;;;24.05;42.70
17521;BME280;8878;-33.370;-70.552;2023-03-22T12:26:17;92083.84;;;24.15;42.01
17521;BME280;8878;-33.370;-70.552;2023-03-22T12:28:52;92089.44;;;24.22;41.84
17521;BME280;8878;-33.370;-70.552;2023-03-22T12:31:24;92090.03;;;24.15;42.45
17521;BME280;8878;-33.370;-70.552;2023-03-22T12:33:57;92094.47;;;24.24;41.32
17521;BME280;8878;-33.370;-70.552;2023-03-22T12:36:33;92096.25;;;24.51;40.66
17521;BME280;8878;-33.370;-70.552;2023-03-22T12:39:06;92096.69;;;24.72;39.58
17521;BME280;8878;-33.370;-70.552;2023-03-22T12:41:40;92096.56;;;24.65;39.43
17521;BME280;8878;-33.370;-70.552;2023-03-22T12:44:16;92092.81;;;24.54;39.49
17521;BME280;8878;-33.370;-70.552;2023-03-22T12:46:49;92098.16;;;24.50;40.47
17521;BME280;8878;-33.370;-70.552;2023-03-22T12:49:24;92096.84;;;24.79;39.67
17521;BME280;8878;-33.370;-70.552;2023-03-22T12:52:02;92098.84;;;25.02;39.57
17521;BME280;8878;-33.370;-70.552;2023-03-22T12:54:34;92097.44;;;25.08;39.34
17521;BME280;8878;-33.370;-70.552;2023-03-22T12:57:05;92099.50;;;25.14;39.22
17521;BME280;8878;-33.370;-70.552;2023-03-22T12:59:37;92102.47;;;25.28;38.91
17521;BME280;8878;-33.370;-70.552;2023-03-22T13:02:14;92106.34;;;25.31;39.06
17521;BME280;8878;-33.370;-70.552;2023-03-22T13:04:52;92101.41;;;25.14;36.71
17521;BME280;8878;-33.370;-70.552;2023-03-22T13:07:49;92107.66;;;25.18;37.00
17521;BME280;8878;-33.370;-70.552;2023-03-22T13:13:43;92109.28;;;25.22;37.17
17521;BME280;8878;-33.370;-70.552;2023-03-22T13:16:52;92109.31;;;25.45;37.43